This is the latest recevied weather packets stored in our database for station/object KB7KFC-3. If no packets are shown the sender has not sent any weather packets the latest 10 day(s).
| Time | Temp. | Humidity | Pressure | Rain* | Wind** | Luminosity | Snow |
|---|---|---|---|---|---|---|---|
| 1778085245 | 21.67° C | 30% | 1017.5 hPa | 0 mm | - | - | - |
| 1778085064 | 21.67° C | 29% | 1017.5 hPa | 0 mm | - | - | - |
| 1778084345 | 21.67° C | 31% | 1017.5 hPa | 0 mm | - | - | - |
| 1778084164 | 21.67° C | 31% | 1017.5 hPa | 0 mm | - | - | - |
| 1778083985 | 21.11° C | 31% | 1017.5 hPa | 0 mm | - | - | - |
| 1778083804 | 21.11° C | 31% | 1017.6 hPa | 0 mm | - | - | - |
| 1778083625 | 21.11° C | 31% | 1017.6 hPa | 0 mm | - | - | - |
| 1778083444 | 21.11° C | 33% | 1017.6 hPa | 0 mm | - | - | - |
| 1778081285 | 19.44° C | 38% | 1017.6 hPa | 0 mm | - | - | - |
| 1778080745 | 18.89° C | 35% | 1017.6 hPa | 0 mm | - | - | - |
| 1778077504 | 16.11° C | 44% | 1017.3 hPa | 0 mm | - | - | - |
| 1778076965 | 15.56° C | 46% | 1017.1 hPa | 0 mm | - | - | - |
| 1778076245 | 15° C | 51% | 1017 hPa | 0 mm | - | - | - |
| 1778074624 | 13.89° C | 46% | 1016.7 hPa | 0 mm | - | - | - |
| 1778074444 | 13.89° C | 46% | 1016.8 hPa | 0 mm | - | - | - |
| 1778074264 | 13.89° C | 47% | 1016.7 hPa | 0 mm | - | - | - |
| 1778074084 | 13.89° C | 47% | 1016.7 hPa | 0 mm | - | - | - |
| 1778073363 | 13.33° C | 49% | 1016.4 hPa | 0 mm | - | - | - |
| 1778073185 | 13.33° C | 47% | 1016.4 hPa | 0 mm | - | - | - |
| 1778072464 | 13.33° C | 46% | 1016.3 hPa | 0 mm | - | - | - |
| 1778071025 | 13.33° C | 49% | 1016 hPa | 0 mm | - | - | - |
| 1778070845 | 13.33° C | 50% | 1015.9 hPa | 0 mm | - | - | - |
| 1778070665 | 13.33° C | 49% | 1015.9 hPa | 0 mm | - | - | - |
| 1778069945 | 13.33° C | 48% | 1015.8 hPa | 0 mm | - | - | - |
| 1778069765 | 13.33° C | 49% | 1015.8 hPa | 0 mm | - | - | - |
* Rain latest hour (hover to see other rain measurements)
** Current wind speed in m/s (hover to see current wind gust speed)